Flight Track Log - Related Links

Times and Time Zones

All times are in EDT time to prevent confusion due to time zone crossing. See the AAL1144 flight status page for this flight to view local times or setup timezone preferences in your user account.


Time Position Orientation Groundspeed Altitude Reporting Facility
EDT Latitude Longitude Course Direction KTS MPH feet Rate Location/Type
Tue 08:03:23 PM 33.6333 -117.8833 90° East 157 181 2,200  Level Southern California TRACON
Tue 08:04:32 PM 33.5725 -117.8972 191° South 238 274 4,600 2,427 Climbing Los Angeles Center
Tue 08:05:00 PM 33.4996 -117.6285 54° Northeast  Level FlightAware Approximate
Tue 08:05:34 PM 33.5369 -117.8233 120° Southeast 286 329 7,500  Level Los Angeles Center
Tue 08:06:00 PM 33.5573 -117.4916 66° East  Level FlightAware Approximate
Tue 08:06:36 PM 33.5525 -117.7219 80° East 305 351 11,200  Level Los Angeles Center
Tue 08:07:00 PM 33.5833 -117.3438 90° East  Level FlightAware Approximate
Tue 08:07:38 PM 33.5636 -117.6364 81° East 317 365 13,300  Level Los Angeles Center
Tue 08:08:00 PM 33.5833 -117.1898 90° East  Level FlightAware Approximate
Tue 08:08:41 PM 33.5719 -117.4697 87° East 359 413 17,500  Level Los Angeles Center
Tue 08:09:43 PM 33.5786 -117.3417 86° East 385 443 19,800 2,371 Climbing Los Angeles Center
Tue 08:10:45 PM 33.5847 -117.2069 87° East 405 466 22,400 1,548 Climbing Los Angeles Center
Tue 08:11:47 PM 33.5908 -117.0728 87° East 405 466 23,000 435 Climbing Los Angeles Center
Tue 08:12:49 PM 33.5969 -116.9394 87° East 404 465 23,300 968 Climbing Los Angeles Center
Tue 08:13:51 PM 33.6033 -116.7753 87° East 416 479 25,000 1,694 Climbing Los Angeles Center
Tue 08:14:53 PM 33.6097 -116.6350 87° East 421 484 26,800 1,887 Climbing Los Angeles Center
Tue 08:15:55 PM 33.6147 -116.4919 88° East 425 489 28,900 1,839 Climbing Los Angeles Center
Tue 08:16:57 PM 33.6214 -116.3475 87° East 429 494 30,600 1,452 Climbing Los Angeles Center
Tue 08:17:59 PM 33.6261 -116.1983 88° East 440 506 31,900 1,500 Climbing Los Angeles Center
Tue 08:19:01 PM 33.6608 -116.0550 74° East 441 507 33,700 1,742 Climbing Los Angeles Center
Tue 08:20:03 PM 33.7161 -115.8889 68° East 445 512 35,500 1,548 Climbing Los Angeles Center
Tue 08:21:05 PM 33.7608 -115.7508 69° East 444 511 36,900 1,226 Climbing Los Angeles Center
Tue 08:23:09 PM 33.8492 -115.4758 69° East 440 506 39,300 1,032 Climbing Los Angeles Center
Tue 08:24:11 PM 33.8936 -115.3397 68° East 438 504 40,100 726 Climbing Los Angeles Center
Tue 08:25:13 PM 33.9358 -115.2031 70° East 436 502 40,800 387 Climbing Los Angeles Center
Tue 08:26:15 PM 33.9892 -115.0403 68° East 436 502 40,900 48 Climbing Los Angeles Center
Tue 08:27:17 PM 34.0314 -114.9033 70° East 438 504 40,900 48 Level Los Angeles Center
Tue 08:28:19 PM 34.0747 -114.7675 69° East 434 499 41,000 48 Climbing Los Angeles Center
Tue 08:29:21 PM 34.1267 -114.6375 64° Northeast 428 493 41,000 -48 Level Los Angeles Center
Tue 08:30:23 PM 34.1958 -114.5217 54° Northeast 427 491 40,900  Descending Los Angeles Center
Tue 08:31:38 PM 34.2783 -114.3822 54° Northeast 424 488 41,000 64 Climbing Los Angeles Center
Tue 08:31:57 PM 34.3053 -114.3342 56° Northeast 422 486 41,000  Level Albuquerque Center
Tue 08:32:59 PM 34.3750 -114.2128 55° Northeast 430 495 41,000  Level Albuquerque Center
Tue 08:33:41 PM 34.4136 -114.1494 54° Northeast 422 486 41,000  Level Los Angeles Center
Tue 08:34:01 PM 34.4442 -114.0947 56° Northeast 431 496 41,000  Level Albuquerque Center
Tue 08:35:02 PM 34.5119 -113.9789 55° Northeast 429 494 41,000  Level Albuquerque Center
Tue 08:36:04 PM 34.5847 -113.8675 52° Northeast 426 490 41,000  Level Albuquerque Center
Tue 08:37:05 PM 34.6758 -113.7314 51° Northeast 428 493 41,000 -49 Level Albuquerque Center
Tue 08:38:07 PM 34.7489 -113.6217 51° Northeast 431 496 40,900  Descending Albuquerque Center
Tue 08:39:09 PM 34.8228 -113.5069 52° Northeast 433 498 41,000 57 Climbing Albuquerque Center
Tue 08:39:53 PM 34.8828 -113.4161 51° Northeast 433 498 41,000  Level Los Angeles Center
Tue 08:40:55 PM 34.9578 -113.3011 51° Northeast 435 501 41,000  Level Los Angeles Center
Tue 08:41:12 PM 34.9722 -113.2767 54° Northeast 436 502 41,000  Level Albuquerque Center
Tue 08:42:13 PM 35.0472 -113.1617 51° Northeast 437 503 41,000  Level Albuquerque Center
Tue 08:43:15 PM 35.1364 -113.0233 52° Northeast 437 503 41,000  Level Albuquerque Center
Tue 08:44:01 PM 35.1822 -112.9525 52° Northeast 437 503 41,000  Level Los Angeles Center
Tue 08:45:03 PM 35.2711 -112.8119 52° Northeast 436 502 41,000  Level Los Angeles Center
Tue 08:45:18 PM 35.2833 -112.7922 53° Northeast 442 509 41,000  Level Albuquerque Center
Tue 08:46:20 PM 35.3583 -112.6761 52° Northeast 442 509 41,000  Level Albuquerque Center
Tue 08:47:06 PM 35.4181 -112.5839 52° Northeast 446 513 41,000  Level Los Angeles Center
Tue 08:48:08 PM 35.4933 -112.4628 53° Northeast 449 517 41,000  Level Los Angeles Center
Tue 08:49:10 PM 35.5833 -112.3214 52° Northeast 444 511 41,000  Level Los Angeles Center
Tue 08:49:37 PM 35.6153 -112.2747 50° Northeast 445 512 41,000  Level Albuquerque Center
Tue 08:50:12 PM 35.6589 -112.2028 53° Northeast 444 511 41,000  Level Los Angeles Center
Tue 08:51:13 PM 35.7336 -112.0839 52° Northeast 442 509 41,000  Level Los Angeles Center
Tue 08:52:15 PM 35.8067 -111.9664 53° Northeast 436 502 41,000  Level Los Angeles Center
Tue 08:53:17 PM 35.8800 -111.8469 53° Northeast 438 504 41,000  Level Los Angeles Center
Tue 08:54:19 PM 35.9625 -111.7153 52° Northeast 440 506 41,000  Level Los Angeles Center
Tue 08:55:18 PM 36.0372 -111.5936 53° Northeast 449 517 41,000  Level Denver Center
Tue 08:56:20 PM 36.1136 -111.4719 52° Northeast 450 518 41,000  Level Denver Center
Tue 08:57:33 PM 36.1881 -111.3492 53° Northeast 449 517 41,000  Level Denver Center
Tue 08:58:35 PM 36.2775 -111.2025 53° Northeast 447 514 41,000  Level Denver Center
Tue 08:59:36 PM 36.3683 -111.0553 53° Northeast 449 517 41,000  Level Denver Center
Tue 09:00:37 PM 36.4417 -110.9322 53° Northeast 447 514 41,000  Level Denver Center
Tue 09:01:39 PM 36.5183 -110.8072 53° Northeast 451 519 41,000  Level Denver Center
Tue 09:02:40 PM 36.5931 -110.6817 53° Northeast 453 521 41,000  Level Denver Center
Tue 09:03:42 PM 36.6700 -110.5544 53° Northeast 459 528 41,000  Level Denver Center
Tue 09:04:43 PM 36.7456 -110.4281 53° Northeast 457 526 41,000  Level Denver Center
Tue 09:05:44 PM 36.8208 -110.3019 53° Northeast 455 524 41,000  Level Denver Center
Tue 09:06:46 PM 36.8967 -110.1758 53° Northeast 455 524 41,000  Level Denver Center
Tue 09:07:47 PM 36.9850 -110.0250 54° Northeast 453 521 41,000  Level Denver Center
Tue 09:08:49 PM 37.0622 -109.9058 51° Northeast 457 526 41,000  Level Denver Center
Tue 09:09:50 PM 37.1403 -109.7875 50° Northeast 457 526 41,000  Level Denver Center
Tue 09:10:51 PM 37.2317 -109.6503 50° Northeast 458 527 41,000  Level Denver Center
Tue 09:11:53 PM 37.3094 -109.5297 51° Northeast 462 532 41,000  Level Denver Center
Tue 09:13:06 PM 37.4000 -109.3928 50° Northeast 457 526 41,000  Level Denver Center
Tue 09:14:08 PM 37.4908 -109.2514 51° Northeast 462 532 41,000  Level Denver Center
Tue 09:15:09 PM 37.5814 -109.1136 50° Northeast 458 527 41,000  Level Denver Center
Tue 09:16:11 PM 37.6594 -108.9922 51° Northeast 462 532 41,000  Level Denver Center
Tue 09:17:12 PM 37.7381 -108.8700 51° Northeast 466 536 41,000  Level Denver Center
Tue 09:18:14 PM 37.8167 -108.7458 51° Northeast 470 541 41,000  Level Denver Center
Tue 09:19:16 PM 37.9089 -108.6036 51° Northeast 468 539 41,000  Level Denver Center
Tue 09:20:17 PM 38.0003 -108.4594 51° Northeast 470 541 41,000  Level Denver Center
Tue 09:21:31 PM 38.0836 -108.3253 52° Northeast 474 545 41,000  Level Denver Center
Tue 09:22:33 PM 38.1739 -108.1811 51° Northeast 468 539 41,000  Level Denver Center
Tue 09:23:34 PM 38.2644 -108.0361 51° Northeast 470 541 41,000  Level Denver Center
Tue 09:24:36 PM 38.3425 -107.9128 51° Northeast 470 541 41,000  Level Denver Center
Tue 09:25:37 PM 38.4325 -107.7669 52° Northeast 471 542 41,000  Level Denver Center
Tue 09:26:39 PM 38.5108 -107.6428 51° Northeast 471 542 41,000  Level Denver Center
Tue 09:27:40 PM 38.5764 -107.5358 52° Northeast 475 547 41,000  Level Denver Center
Tue 09:28:42 PM 38.6822 -107.3631 52° Northeast 486 559 41,000  Level Denver Center
Tue 09:29:44 PM 38.7764 -107.2092 52° Northeast 491 565 41,000  Level Denver Center
Tue 09:30:46 PM 38.8583 -107.0742 52° Northeast 500 575 41,000  Level Denver Center
Tue 09:31:47 PM 38.9378 -106.9419 52° Northeast 494 568 41,000  Level Denver Center
Tue 09:33:14 PM 39.0597 -106.7419 52° Northeast 494 568 41,000  Level Denver Center
Tue 09:34:15 PM 39.1508 -106.5889 52° Northeast 486 559 41,000  Level Denver Center
Tue 09:35:17 PM 39.2314 -106.4561 52° Northeast 489 563 41,000  Level Denver Center
Tue 09:36:18 PM 39.2958 -106.3444 53° Northeast 489 563 41,000  Level Denver Center
Tue 09:37:20 PM 39.4036 -106.1625 52° Northeast 489 563 41,000  Level Denver Center
Tue 09:38:22 PM 39.4836 -106.0269 53° Northeast 488 562 41,000  Level Denver Center
Tue 09:39:24 PM 39.5469 -105.8667 63° Northeast 493 567 41,000  Level Denver Center
Tue 09:40:26 PM 39.6203 -105.6761 63° Northeast 499 574 41,000  Level Denver Center
Tue 09:41:27 PM 39.6794 -105.5131 65° Northeast 494 568 41,000  Level Denver Center
Tue 09:42:29 PM 39.7386 -105.3486 65° Northeast 497 572 41,000  Level Denver Center
Tue 09:43:31 PM 39.7972 -105.1856 65° Northeast 487 560 41,000  Level Denver Center
Tue 09:44:32 PM 39.8583 -105.0169 65° Northeast 500 575 41,000  Level Denver Center
Tue 09:45:34 PM 39.9178 -104.8508 65° Northeast 493 567 41,000  Level Denver Center
Tue 09:46:36 PM 39.9758 -104.6858 65° Northeast 488 562 41,000  Level Denver Center
Tue 09:47:37 PM 40.0344 -104.5178 65° Northeast 496 571 41,000  Level Denver Center
Tue 09:48:39 PM 40.0931 -104.3464 66° East 497 572 41,000  Level Denver Center
Tue 09:49:41 PM 40.1511 -104.1789 66° East 494 568 41,000  Level Denver Center
Tue 09:50:42 PM 40.2078 -104.0128 66° East 490 564 41,000  Level Denver Center
Tue 09:51:44 PM 40.2642 -103.8497 66° East 480 552 41,000  Level Denver Center
Tue 09:52:46 PM 40.3222 -103.6900 64° Northeast 459 528 41,000  Level Denver Center
Tue 09:53:47 PM 40.3769 -103.5247 66° East 486 559 41,000  Level Denver Center
Tue 09:54:49 PM 40.4414 -103.3336 66° East 486 559 41,000  Level Denver Center
Tue 09:55:51 PM 40.4958 -103.1703 66° East 485 558 41,000  Level Denver Center
Tue 09:57:04 PM 40.5614 -102.9781 66° East 490 564 41,000  Level Denver Center
Tue 09:58:06 PM 40.5739 -102.8008 85° East 486 559 41,000  Level Denver Center
Tue 09:59:08 PM 40.5683 -102.6228 92° East 478 550 41,000  Level Denver Center
Tue 10:00:21 PM 40.5636 -102.4553 92° East 479 551 41,000  Level Denver Center
Tue 10:01:23 PM 40.5567 -102.2311 92° East 481 554 41,000  Level Denver Center
Tue 10:02:25 PM 40.5497 -102.0322 93° East 486 559 41,000  Level Denver Center
Tue 10:03:26 PM 40.5450 -101.8653 92° East 480 552 41,000  Level Denver Center
Tue 10:04:28 PM 40.5381 -101.6672 93° East 486 559 41,000  Level Denver Center
Tue 10:05:30 PM 40.5308 -101.4983 93° East 487 560 41,000  Level Denver Center
Tue 10:06:31 PM 40.5239 -101.3306 93° East 483 556 41,000  Level Denver Center
Tue 10:07:33 PM 40.5156 -101.1347 93° East 485 558 41,000  Level Denver Center
Tue 10:08:34 PM 40.5072 -100.9689 94° East 482 555 41,000  Level Denver Center
Tue 10:09:36 PM 40.4994 -100.7750 93° East 481 554 41,000  Level Denver Center
Tue 10:10:37 PM 40.4917 -100.6092 93° East 480 552 41,000  Level Denver Center
Tue 10:12:12 PM 40.4797 -100.3264 93° East 476 548 41,000  Level Minneapolis Center
Tue 10:12:40 PM 40.4739 -100.2533 96° East 475 547 41,000  Level Denver Center
Tue 10:13:42 PM 40.4647 -100.0642 94° East 469 540 41,000  Level Denver Center
Tue 10:14:43 PM 40.4556 -99.9031 94° East 464 534 41,000  Level Denver Center
Tue 10:15:45 PM 40.4481 -99.7481 94° East 464 534 41,000  Level Denver Center
Tue 10:18:09 PM 40.4228 -99.3133 94° East 461 531 41,000  Level Kansas City Center
Tue 10:18:49 PM 40.4169 -99.2144 94° East 457 526 41,000  Level Denver Center
Tue 10:19:51 PM 40.4075 -99.0511 94° East 453 521 41,000  Level Denver Center
Tue 10:20:20 PM 40.4033 -98.9861 95° East 454 522 41,000  Level Minneapolis Center
Tue 10:21:21 PM 40.3906 -98.7889 95° East 455 524 41,000  Level Minneapolis Center
Tue 10:22:21 PM 40.3800 -98.6225 95° East 458 527 41,000  Level Minneapolis Center
Tue 10:23:22 PM 40.3694 -98.4564 95° East 460 529 41,000  Level Minneapolis Center
Tue 10:24:23 PM 40.3583 -98.2875 95° East 464 534 41,000  Level Minneapolis Center
Tue 10:25:24 PM 40.3469 -98.1178 95° East 468 539 41,000  Level Minneapolis Center
Tue 10:26:25 PM 40.3353 -97.9481 95° East 469 540 41,000  Level Minneapolis Center
Tue 10:27:26 PM 40.3225 -97.7778 96° East 470 541 41,000  Level Minneapolis Center
Tue 10:28:27 PM 40.3106 -97.6078 95° East 470 541 41,000  Level Minneapolis Center
Tue 10:29:28 PM 40.2986 -97.4375 95° East 470 541 41,000  Level Minneapolis Center
Tue 10:30:29 PM 40.2844 -97.2533 96° East 469 540 41,000  Level Minneapolis Center
Tue 10:31:30 PM 40.2711 -97.0869 96° East 465 535 41,000  Level Minneapolis Center
Tue 10:32:31 PM 40.2581 -96.9189 96° East 465 535 41,000  Level Minneapolis Center
Tue 10:33:31 PM 40.2450 -96.7539 96° East 460 529 41,000  Level Minneapolis Center
Tue 10:34:32 PM 40.2319 -96.5900 96° East 456 525 41,000  Level Minneapolis Center
Tue 10:35:33 PM 40.2186 -96.4283 96° East 452 520 41,000  Level Minneapolis Center
Tue 10:36:34 PM 40.2053 -96.2664 96° East 450 518 41,000  Level Minneapolis Center
Tue 10:37:35 PM 40.2178 -96.1042 84° East 452 520 41,000  Level Minneapolis Center
Tue 10:38:37 PM 40.2453 -95.9425 77° East 455 524 41,000  Level Minneapolis Center
Tue 10:39:38 PM 40.2797 -95.7475 77° East 459 528 41,000  Level Minneapolis Center
Tue 10:40:39 PM 40.3067 -95.5878 77° East 455 524 41,000  Level Minneapolis Center
Tue 10:41:40 PM 40.3342 -95.4283 77° East 453 521 41,000  Level Minneapolis Center
Tue 10:42:41 PM 40.3611 -95.2675 78° East 453 521 41,000  Level Minneapolis Center
Tue 10:43:41 PM 40.3883 -95.1056 78° East 454 522 41,000  Level Minneapolis Center
Tue 10:44:42 PM 40.4147 -94.9447 78° East 454 522 41,000  Level Minneapolis Center
Tue 10:45:43 PM 40.4400 -94.7833 78° East 454 522 41,000  Level Minneapolis Center
Tue 10:46:56 PM 40.4667 -94.6203 78° East 455 524 41,000  Level Minneapolis Center
Tue 10:47:57 PM 40.4983 -94.4214 78° East 461 531 41,000  Level Minneapolis Center
Tue 10:48:58 PM 40.5239 -94.2578 78° East 462 532 41,000  Level Minneapolis Center
Tue 10:49:59 PM 40.5486 -94.0944 79° East 461 531 41,000  Level Minneapolis Center
Tue 10:51:00 PM 40.5758 -93.9319 78° East 460 529 41,000  Level Minneapolis Center
Tue 10:52:00 PM 40.6039 -93.7378 79° East 456 525 41,000  Level Minneapolis Center
Tue 10:53:00 PM 40.6245 -93.5721 81° East  Level FlightAware Approximate
Tue 10:53:49 PM 40.6478 -93.4453 81° East 454 522 41,000  Level Chicago Center
Tue 10:54:50 PM 40.6733 -93.2839 78° East 450 518 41,000  Level Chicago Center
Tue 10:55:51 PM 40.6975 -93.1225 79° East 450 518 41,000  Level Chicago Center
Tue 10:56:52 PM 40.7208 -92.9625 79° East 447 514 41,000  Level Chicago Center
Tue 10:57:53 PM 40.7447 -92.8019 79° East 447 514 41,000  Level Chicago Center
Tue 10:58:54 PM 40.7681 -92.6394 79° East 449 517 41,000 -446 Level Chicago Center
Tue 10:59:54 PM 40.7908 -92.4778 79° East 448 516 40,100 -942 Descending Chicago Center
Tue 11:00:55 PM 40.8111 -92.3156 81° East 449 517 39,100 -934 Descending Chicago Center
Tue 11:01:56 PM 40.8231 -92.1525 84° East 449 517 38,200 -934 Descending Chicago Center
Tue 11:02:57 PM 40.8372 -91.9897 83° East 447 514 37,200 -934 Descending Chicago Center
Tue 11:03:58 PM 40.8528 -91.8250 83° East 453 521 36,300 -942 Descending Chicago Center
Tue 11:04:58 PM 40.8778 -91.6636 78° East 452 520 35,300 -1,041 Descending Chicago Center
Tue 11:05:59 PM 40.9058 -91.4667 79° East 456 525 34,200 -639 Descending Chicago Center
Tue 11:07:00 PM 40.9286 -91.3036 79° East 455 524 34,000 -98 Descending Chicago Center
Tue 11:08:01 PM 40.9519 -91.1447 79° East 456 525 34,000  Level Chicago Center
Tue 11:09:02 PM 40.9753 -90.9814 79° East 454 522 34,000  Level Chicago Center
Tue 11:10:02 PM 40.9983 -90.8156 80° East 457 526 34,000 -50 Level Chicago Center
Tue 11:11:03 PM 41.0208 -90.6508 80° East 455 524 33,900 -541 Descending Chicago Center
Tue 11:12:04 PM 41.0431 -90.4864 80° East 453 521 32,900 -934 Descending Chicago Center
Tue 11:13:05 PM 41.0647 -90.3175 80° East 461 531 32,000 -934 Descending Chicago Center
Tue 11:14:06 PM 41.0878 -90.1494 80° East 460 529 31,000 -1,140 Descending Chicago Center
Tue 11:15:06 PM 41.1108 -89.9792 80° East 465 535 29,700 -1,289 Descending Chicago Center
Tue 11:16:07 PM 41.1581 -89.8156 69° East 477 549 28,400 -1,180 Descending Chicago Center
Tue 11:17:08 PM 41.2089 -89.6603 66° East 462 532 27,300 -1,770 Descending Chicago Center
Tue 11:18:09 PM 41.2572 -89.5122 66° East 434 499 24,800 -2,430 Descending Chicago Center
Tue 11:19:09 PM 41.3039 -89.3686 67° East 421 484 22,400 -2,331 Descending Chicago Center
Tue 11:20:10 PM 41.3483 -89.2322 66° East 402 463 20,100 -2,361 Descending Chicago Center
Tue 11:21:11 PM 41.3933 -89.0794 69° East 385 443 17,600 -2,361 Descending Chicago Center
Tue 11:22:12 PM 41.4342 -88.9525 67° East 376 433 15,300 -2,031 Descending Chicago Center
Tue 11:24:26 PM 41.5167 -88.6833 68° East 356 410 11,000 -1,418 Descending Chicago TRACON
Tue 11:25:14 PM 41.5569 -88.5925 59° Northeast 352 405 11,000  Level Chicago Center
Tue 11:26:15 PM 41.6206 -88.4844 52° Northeast 362 417 11,000 -98 Level Chicago Center
Tue 11:27:16 PM 41.6875 -88.3800 49° Northeast 368 423 10,800 -496 Descending Chicago Center
Tue 11:28:16 PM 41.7494 -88.2836 49° Northeast 345 397 10,000 -496 Descending Chicago Center
Tue 11:29:17 PM 41.8033 -88.1978 50° Northeast 305 351 9,800 -443 Descending Chicago Center
Tue 11:30:18 PM 41.8653 -88.1208 43° Northeast 305 351 9,100 -738 Descending Chicago Center
Tue 11:31:19 PM 41.9411 -88.0650 29° Northeast 311 358 8,300 -938 Descending Chicago Center
Tue 11:32:26 PM 42.0333 -88.0000 28° Northeast 296 341 7,100 -992 Descending Chicago TRACON
Tue 11:33:26 PM 42.1000 -87.9500 29° Northeast 253 291 6,200 -1,043 Descending Chicago TRACON
Tue 11:34:21 PM 42.1283 -87.9047 50° Northeast 243 280 5,100 -1,138 Descending Chicago Center
Tue 11:35:22 PM 42.1664 -87.8311 55° Northeast 228 262 4,000 -541 Descending Chicago Center
Tue 11:36:23 PM 42.1369 -87.7797 128° Southeast 201 231 4,000 -432 Level Chicago Center
Tue 11:37:27 PM 42.1000 -87.8000 202° Southwest 142 163 3,100 -844 Descending Chicago TRACON

Login

Don't have an account? Register now (free) for customized features, flight alerts, and more!